Gainsville Regional Airport

Airport
ICAO code: 
KGNV
Summary
ICAO Region: 
NAM
Territory: 
Location: 
Gainsville, Florida,
Elevation: 
152 ft
Coordinates: 
Aerial View: 
29° 41' 19.379" N, 82° 16' 16.298" W
Metar
Observation
KGNV 020953Z AUTO 00000KT 10SM CLR 07/06 A3015 RMK AO2 SLP210 T00670056
Station
Gainesville, Gainesville Regional Airport
Date/Time
2021-12-02 09:53:00
Wind direction
Wind speed
00 kts
Lowest cloud amount
n/a
Temperature
6.7°C
Dew point
5.6°C
Humidity
92%
Weather condition
n/a

Description

Gainesville Regional Airport is a public use airport located three 6 km northeast of the central business district of Gainesville, in Alachua County, Florida.

Climatology

Humid “subtropical” climate (Köppen climate classification Cfa) - characterized by hot, humid summers and cool winters. Significant amounts of precipitation occur in all seasons in most areas.

Runways

Designator Length Width Surface Rops
7/25 1267 30 ASP Yes/Yes
11/29 2287 46 ASP Yes/Yes
Airport map: 
Aerial View: 

SKYbrary Partners:

Safety knowledge contributed by: